Time;durP1;ratioP1;P1;durP2;ratioP2;P2;SDS_P1;SDS_P2;PMS_P1;PMS_P2;Temp;Humidity;BMP_temperature;BMP_pressure;BME280_temperature;BME280_humidity;BME280_pressure;Samples;Min_cycle;Max_cycle;Signal;HPM_P1;HPM_P2
2023/04/14 00:01:52;;;;;;;24.88;5.07;;;4.70;99.90;;;;;;5054828;28;20405;-76
2023/04/14 00:04:18;;;;;;;33.78;5.68;;;4.70;99.90;;;;;;5056135;28;20098;-75
2023/04/14 00:06:44;;;;;;;43.38;6.88;;;4.70;99.90;;;;;;5056582;28;20061;-75
2023/04/14 00:09:10;;;;;;;13.15;3.35;;;4.60;99.90;;;;;;5056607;28;20056;-74
2023/04/14 00:11:36;;;;;;;19.17;4.05;;;4.50;99.90;;;;;;5056492;28;20496;-75
2023/04/14 00:14:02;;;;;;;16.80;4.05;;;4.50;99.90;;;;;;5055308;28;20049;-74
2023/04/14 00:16:29;;;;;;;22.38;4.65;;;4.50;99.90;;;;;;5054313;28;20073;-76
2023/04/14 00:18:55;;;;;;;18.83;4.40;;;4.40;99.90;;;;;;5055495;28;20044;-76
2023/04/14 00:21:21;;;;;;;17.10;3.88;;;4.40;99.90;;;;;;5054293;28;20175;-75
2023/04/14 00:23:47;;;;;;;18.17;4.22;;;4.40;99.90;;;;;;5054355;28;20083;-74
2023/04/14 00:26:13;;;;;;;26.88;4.53;;;4.30;99.90;;;;;;5055323;28;20041;-74
2023/04/14 00:28:39;;;;;;;30.08;5.68;;;4.30;99.90;;;;;;5054721;28;20072;-76
2023/04/14 00:31:05;;;;;;;24.88;5.50;;;4.30;99.90;;;;;;5055825;28;20074;-75
2023/04/14 00:33:31;;;;;;;26.23;5.10;;;4.30;99.90;;;;;;5037718;28;20055;-74
2023/04/14 00:35:57;;;;;;;33.78;6.70;;;4.20;99.90;;;;;;5054038;28;20048;-75
2023/04/14 00:38:24;;;;;;;32.28;6.00;;;4.20;99.90;;;;;;5057882;28;20045;-74
2023/04/14 00:40:49;;;;;;;24.90;5.93;;;4.10;99.90;;;;;;5058382;28;20045;-75
2023/04/14 00:43:18;;;;;;;22.48;5.18;;;4.10;99.90;;;;;;5056002;28;20392;-76
2023/04/14 00:45:46;;;;;;;24.55;6.28;;;4.10;99.90;;;;;;5054142;28;20364;-74
2023/04/14 00:48:16;;;;;;;24.48;5.65;;;4.00;99.90;;;;;;5053934;28;20052;-74
2023/04/14 00:50:42;;;;;;;14.07;4.70;;;4.00;99.90;;;;;;5037033;28;20165;-74
2023/04/14 00:53:09;;;;;;;24.90;4.97;;;4.00;99.90;;;;;;5053711;28;20174;-75
2023/04/14 00:55:37;;;;;;;20.25;4.22;;;4.00;99.90;;;;;;5037287;28;20084;-75
2023/04/14 00:58:03;;;;;;;22.75;4.68;;;3.90;99.90;;;;;;5037628;28;20106;-75
2023/04/14 01:00:29;;;;;;;24.85;4.82;;;4.00;99.90;;;;;;5053061;28;20057;-75
2023/04/14 01:02:55;;;;;;;29.27;6.68;;;3.90;99.90;;;;;;5053263;28;20041;-75
2023/04/14 01:05:21;;;;;;;29.20;6.45;;;4.00;99.90;;;;;;5052821;28;20393;-76
2023/04/14 01:07:48;;;;;;;17.83;4.28;;;3.90;99.90;;;;;;5053217;28;20416;-80
2023/04/14 01:10:15;;;;;;;13.15;3.33;;;4.00;99.90;;;;;;5053355;28;20041;-75
2023/04/14 01:13:17;;;;;;;14.80;2.97;;;4.00;99.90;;;;;;5053094;28;20107;-74
2023/04/14 01:15:59;;;;;;;13.90;3.03;;;4.10;99.90;;;;;;5036260;28;20107;-75
2023/04/14 01:19:05;;;;;;;12.40;2.85;;;4.10;99.90;;;;;;5053555;28;20049;-74
2023/04/14 01:21:38;;;;;;;11.32;2.80;;;4.10;99.90;;;;;;5041945;28;20057;-76
2023/04/14 01:24:14;;;;;;;9.43;3.22;;;4.10;99.90;;;;;;5053376;28;20062;-75
2023/04/14 01:26:42;;;;;;;17.58;3.10;;;4.10;99.90;;;;;;5053936;28;20045;-77
2023/04/14 01:29:18;;;;;;;11.63;2.80;;;4.10;99.90;;;;;;5054112;28;20052;-75
2023/04/14 01:31:49;;;;;;;13.65;2.53;;;4.10;99.90;;;;;;5054529;28;20174;-74
2023/04/14 01:34:27;;;;;;;12.95;2.65;;;4.10;99.90;;;;;;5053425;28;20385;-74
2023/04/14 01:37:13;;;;;;;13.55;2.35;;;4.10;99.90;;;;;;5036861;28;20057;-74
2023/04/14 01:39:45;;;;;;;18.55;2.60;;;4.10;99.90;;;;;;5035782;28;20056;-74
2023/04/14 01:42:16;;;;;;;17.33;2.70;;;4.10;99.90;;;;;;5035565;28;20057;-75
2023/04/14 01:44:42;;;;;;;7.88;2.20;;;4.10;99.90;;;;;;5052729;28;20057;-75
2023/04/14 01:47:12;;;;;;;13.77;2.35;;;4.10;99.90;;;;;;5053404;28;20142;-75
2023/04/14 01:49:40;;;;;;;7.70;2.40;;;4.20;99.90;;;;;;5053375;28;20052;-75
2023/04/14 01:52:10;;;;;;;13.55;2.80;;;4.20;99.90;;;;;;5053448;28;20098;-75
2023/04/14 01:54:38;;;;;;;13.10;2.38;;;4.30;99.90;;;;;;5035512;28;20045;-74
2023/04/14 01:57:05;;;;;;;12.07;2.58;;;4.30;99.90;;;;;;5052889;28;20513;-74
2023/04/14 01:59:33;;;;;;;15.93;2.70;;;4.30;99.90;;;;;;5053317;28;20099;-74
2023/04/14 02:02:02;;;;;;;10.38;2.45;;;4.30;99.90;;;;;;5053089;28;20052;-75
2023/04/14 02:04:29;;;;;;;10.57;2.72;;;4.30;99.90;;;;;;5051756;28;20052;-74
2023/04/14 02:06:57;;;;;;;;;;;4.30;99.90;;;;;;5054531;28;20562;-74
2023/04/14 02:09:26;;;;;;;15.43;2.80;;;4.30;99.90;;;;;;5056028;28;19927;-76
2023/04/14 02:11:53;;;;;;;11.48;2.88;;;4.30;99.90;;;;;;5053564;28;20051;-75
2023/04/14 02:14:21;;;;;;;20.65;3.38;;;4.30;99.90;;;;;;5054066;28;20049;-75
2023/04/14 02:16:49;;;;;;;14.73;2.88;;;4.30;99.90;;;;;;5019409;28;20083;-74
2023/04/14 02:19:18;;;;;;;15.35;2.80;;;4.30;99.90;;;;;;5052675;28;20532;-74
2023/04/14 02:21:47;;;;;;;18.13;3.20;;;4.30;99.90;;;;;;5035877;28;20064;-75
2023/04/14 02:24:13;;;;;;;14.93;2.85;;;4.30;99.90;;;;;;5053727;28;20122;-74
2023/04/14 02:26:47;;;;;;;11.23;2.58;;;4.30;99.90;;;;;;5035801;28;20049;-75
2023/04/14 02:29:15;;;;;;;16.38;2.78;;;4.40;99.90;;;;;;5053237;28;20076;-74
2023/04/14 02:31:49;;;;;;;11.75;2.90;;;4.50;99.90;;;;;;5052116;28;20060;-76
2023/04/14 02:34:22;;;;;;;15.05;3.13;;;4.50;99.90;;;;;;5052382;28;20041;-75
2023/04/14 02:36:52;;;;;;;12.85;3.15;;;4.50;99.90;;;;;;5051465;28;20092;-74
2023/04/14 02:39:31;;;;;;;10.43;2.90;;;4.60;99.90;;;;;;5052969;28;20390;-76
2023/04/14 02:42:07;;;;;;;12.38;2.95;;;4.60;99.90;;;;;;5037013;28;20045;-75
2023/04/14 02:44:37;;;;;;;18.00;3.22;;;4.70;99.90;;;;;;5057436;28;20098;-74
2023/04/14 02:47:06;;;;;;;15.38;3.10;;;4.60;99.90;;;;;;5056838;28;20052;-74
2023/04/14 02:49:46;;;;;;;9.63;3.10;;;4.70;99.90;;;;;;5056695;28;20041;-77
2023/04/14 02:52:15;;;;;;;15.52;3.30;;;4.70;99.90;;;;;;5056641;28;20504;-76
2023/04/14 02:54:42;;;;;;;13.43;3.20;;;4.70;99.90;;;;;;5056694;28;20052;-75
2023/04/14 02:57:08;;;;;;;17.45;4.68;;;4.70;99.90;;;;;;5055482;28;20057;-77
2023/04/14 02:59:35;;;;;;;13.43;3.22;;;4.70;99.90;;;;;;5056661;28;20045;-74
2023/04/14 03:02:03;;;;;;;17.08;4.05;;;4.70;99.90;;;;;;5055638;28;20150;-74
2023/04/14 03:04:37;;;;;;;17.73;3.80;;;4.60;99.90;;;;;;5038643;28;20060;-73
2023/04/14 03:07:04;;;;;;;14.18;3.45;;;4.60;99.90;;;;;;5056471;28;20084;-76
2023/04/14 03:09:31;;;;;;;17.52;4.00;;;4.50;99.90;;;;;;5056619;28;20055;-74
2023/04/14 03:11:57;;;;;;;13.93;3.50;;;4.50;99.90;;;;;;5055400;28;20132;-76
2023/04/14 03:14:24;;;;;;;18.70;4.00;;;4.40;99.90;;;;;;5055293;28;20095;-76
2023/04/14 03:16:51;;;;;;;13.00;3.30;;;4.40;99.90;;;;;;5055821;28;20104;-75
2023/04/14 03:19:22;;;;;;;16.48;3.47;;;4.40;99.90;;;;;;5056517;28;20084;-75
2023/04/14 03:21:53;;;;;;;13.77;4.00;;;4.40;99.90;;;;;;5058448;28;20049;-75
2023/04/14 03:24:23;;;;;;;20.70;4.35;;;4.40;99.90;;;;;;5042389;28;20056;-75
2023/04/14 03:27:05;;;;;;;13.23;3.90;;;4.40;99.90;;;;;;5056465;28;20091;-76
2023/04/14 03:29:40;;;;;;;12.68;3.65;;;4.40;99.90;;;;;;5055149;28;20076;-74
2023/04/14 03:32:08;;;;;;;15.20;4.10;;;4.30;99.90;;;;;;5057224;28;20389;-75
2023/04/14 03:34:37;;;;;;;14.32;4.57;;;4.30;99.90;;;;;;5038229;28;20045;-72
2023/04/14 03:37:04;;;;;;;15.65;4.50;;;4.30;99.90;;;;;;5055401;28;20074;-76
2023/04/14 03:39:33;;;;;;;13.82;3.80;;;4.30;99.90;;;;;;5054791;28;20493;-75
2023/04/14 03:42:01;;;;;;;12.52;3.80;;;4.30;99.90;;;;;;5022081;28;20084;-75
2023/04/14 03:44:31;;;;;;;15.52;3.63;;;4.30;99.90;;;;;;5055877;28;20045;-75
2023/04/14 03:46:59;;;;;;;12.45;3.85;;;4.30;99.90;;;;;;5054429;28;20079;-75
2023/04/14 03:49:26;;;;;;;17.33;3.95;;;4.30;99.90;;;;;;5055623;28;20052;-75
2023/04/14 03:51:53;;;;;;;14.90;4.10;;;4.30;99.90;;;;;;5055138;28;20591;-76
2023/04/14 03:54:24;;;;;;;17.55;4.72;;;4.30;99.90;;;;;;5037600;28;20114;-76
2023/04/14 03:56:50;;;;;;;17.88;3.97;;;4.20;99.90;;;;;;5054365;28;20092;-76
2023/04/14 03:59:18;;;;;;;14.32;4.00;;;4.20;99.90;;;;;;5037699;28;20049;-76
2023/04/14 04:01:46;;;;;;;13.00;4.25;;;4.10;99.90;;;;;;5055413;28;20080;-75
2023/04/14 04:04:12;;;;;;;;;;;4.00;99.90;;;;;;5055545;28;20142;-75
2023/04/14 04:06:39;;;;;;;14.48;3.97;;;4.00;99.90;;;;;;5087551;28;19999;-73
2023/04/14 04:09:06;;;;;;;;;;;3.90;99.90;;;;;;5039173;28;20127;-75
2023/04/14 04:11:34;;;;;;;16.95;6.10;;;3.90;99.90;;;;;;5054564;28;19927;-76
2023/04/14 04:14:02;;;;;;;17.00;5.22;;;3.80;99.90;;;;;;5055236;28;20408;-77
2023/04/14 04:16:29;;;;;;;18.83;5.13;;;3.70;99.90;;;;;;5054179;28;20393;-75
2023/04/14 04:18:56;;;;;;;24.98;7.50;;;3.70;99.90;;;;;;5054937;28;20059;-76
2023/04/14 04:21:26;;;;;;;19.70;6.45;;;3.70;99.90;;;;;;5053770;28;20056;-76
2023/04/14 04:23:55;;;;;;;10.45;3.50;;;3.60;99.90;;;;;;5053792;28;20095;-75
2023/04/14 04:26:24;;;;;;;16.55;5.45;;;3.60;99.90;;;;;;5054938;28;20095;-75
2023/04/14 04:28:51;;;;;;;39.13;11.40;;;3.50;99.90;;;;;;5054770;28;20102;-75
2023/04/14 04:31:17;;;;;;;;;;;3.50;99.90;;;;;;5054149;28;20052;-74
2023/04/14 04:33:45;;;;;;;56.80;17.63;;;3.40;99.90;;;;;;5070571;28;20003;-74
2023/04/14 04:36:12;;;;;;;34.88;9.35;;;3.40;99.90;;;;;;5043147;28;20366;-74
2023/04/14 04:38:38;;;;;;;24.17;8.10;;;3.40;99.90;;;;;;5067084;28;20045;-75
2023/04/14 04:41:04;;;;;;;25.83;8.50;;;3.30;99.90;;;;;;5058018;28;20047;-76
2023/04/14 04:43:30;;;;;;;13.32;5.10;;;3.30;99.90;;;;;;5038075;28;20159;-75
2023/04/14 04:46:29;;;;;;;18.27;5.10;;;3.30;99.90;;;;;;5053515;28;20045;-75
2023/04/14 04:48:56;;;;;;;16.08;4.85;;;3.30;99.90;;;;;;5053638;28;20061;-75
2023/04/14 04:51:22;;;;;;;16.27;5.18;;;3.30;99.90;;;;;;5054288;28;20041;-74
2023/04/14 04:53:47;;;;;;;17.42;5.75;;;3.30;99.90;;;;;;5054347;28;20378;-73
2023/04/14 04:56:13;;;;;;;27.00;5.10;;;3.30;99.90;;;;;;5053485;28;20052;-75
2023/04/14 04:58:39;;;;;;;15.20;4.78;;;3.20;99.90;;;;;;5054393;28;20091;-74
2023/04/14 05:01:09;;;;;;;16.45;4.72;;;3.20;99.90;;;;;;5036605;28;20135;-75
2023/04/14 05:03:36;;;;;;;14.25;5.18;;;3.30;99.90;;;;;;5053271;28;20110;-74
2023/04/14 05:06:03;;;;;;;13.13;4.25;;;3.30;99.90;;;;;;5053234;28;20099;-74
2023/04/14 05:08:29;;;;;;;14.48;5.03;;;3.30;99.90;;;;;;5053283;28;20045;-73
2023/04/14 05:10:54;;;;;;;18.67;4.75;;;3.30;99.90;;;;;;5036297;28;20133;-74
2023/04/14 05:13:21;;;;;;;14.90;4.25;;;3.40;99.90;;;;;;5036538;28;20497;-75
2023/04/14 05:15:47;;;;;;;16.15;4.93;;;3.40;99.90;;;;;;5037329;28;20064;-74
2023/04/14 05:18:13;;;;;;;13.73;4.63;;;3.50;99.90;;;;;;5036165;28;20041;-75
2023/04/14 05:20:39;;;;;;;17.98;4.90;;;3.50;99.90;;;;;;5053294;28;20048;-76
2023/04/14 05:23:05;;;;;;;13.30;5.28;;;3.50;99.90;;;;;;5052768;28;20056;-76
2023/04/14 05:25:31;;;;;;;17.00;5.07;;;3.50;99.90;;;;;;5036455;28;20053;-76
2023/04/14 05:27:56;;;;;;;19.10;5.00;;;3.60;99.90;;;;;;5053982;28;20128;-75
2023/04/14 05:30:22;;;;;;;17.00;4.80;;;3.60;99.90;;;;;;5053144;28;20052;-76
2023/04/14 05:32:49;;;;;;;19.55;6.65;;;3.60;99.90;;;;;;5053624;28;20513;-77
2023/04/14 05:35:23;;;;;;;16.00;5.60;;;3.80;99.90;;;;;;5054100;28;20559;-75
2023/04/14 05:37:50;;;;;;;18.45;5.70;;;3.80;99.90;;;;;;5054484;28;20113;-76
2023/04/14 05:40:16;;;;;;;14.07;4.95;;;3.80;99.90;;;;;;5054581;28;20049;-76
2023/04/14 05:42:42;;;;;;;19.73;5.32;;;3.90;99.90;;;;;;5055079;28;20127;-75
2023/04/14 05:45:09;;;;;;;20.10;5.70;;;3.90;99.90;;;;;;5053440;28;20049;-76
2023/04/14 05:47:35;;;;;;;19.52;5.57;;;4.00;99.90;;;;;;5036386;28;20107;-75
2023/04/14 05:50:02;;;;;;;17.73;5.83;;;4.10;99.90;;;;;;5052817;28;20569;-76
2023/04/14 05:52:28;;;;;;;13.48;5.15;;;4.20;99.90;;;;;;5055633;28;20092;-74
2023/04/14 05:54:54;;;;;;;18.30;5.45;;;4.30;99.90;;;;;;5054643;28;20464;-72
2023/04/14 05:57:20;;;;;;;17.70;5.13;;;4.50;99.90;;;;;;5053978;28;20048;-76
2023/04/14 05:59:46;;;;;;;15.45;4.38;;;4.60;99.90;;;;;;5052763;28;20083;-75
2023/04/14 06:02:11;;;;;;;18.80;4.90;;;4.60;99.90;;;;;;5035750;28;20041;-74
2023/04/14 06:04:37;;;;;;;20.45;5.38;;;4.70;99.90;;;;;;5052362;28;20090;-75
2023/04/14 06:07:03;;;;;;;16.08;5.07;;;4.80;99.90;;;;;;5052110;28;20377;-76
2023/04/14 06:09:28;;;;;;;20.65;5.00;;;4.90;99.90;;;;;;5052218;28;20443;-75
2023/04/14 06:11:55;;;;;;;20.67;5.40;;;5.00;99.90;;;;;;5053073;28;20497;-75
2023/04/14 06:14:21;;;;;;;25.02;5.35;;;5.10;99.90;;;;;;5035805;28;20052;-76
2023/04/14 06:16:46;;;;;;;13.60;5.13;;;5.20;99.90;;;;;;5038889;28;20365;-75
2023/04/14 06:19:12;;;;;;;22.20;5.72;;;5.30;99.90;;;;;;5056174;28;20037;-75
2023/04/14 06:21:38;;;;;;;22.70;6.25;;;5.30;99.90;;;;;;5039463;28;20045;-75
2023/04/14 06:24:04;;;;;;;23.52;6.70;;;5.30;99.90;;;;;;5023979;28;20048;-74
2023/04/14 06:26:31;;;;;;;18.58;5.57;;;5.30;99.90;;;;;;5072897;28;20493;-75
2023/04/14 06:28:57;;;;;;;19.30;5.82;;;5.30;99.90;;;;;;5039202;28;20041;-75
2023/04/14 06:31:23;;;;;;;21.25;6.13;;;5.30;99.90;;;;;;5056073;28;20044;-77
2023/04/14 06:33:51;;;;;;;27.25;8.65;;;5.30;99.90;;;;;;5056483;28;20377;-74
2023/04/14 06:36:17;;;;;;;37.83;8.48;;;5.40;99.90;;;;;;5057079;28;20052;-75
2023/04/14 06:38:43;;;;;;;38.67;10.10;;;5.50;99.90;;;;;;5056844;28;20500;-75
2023/04/14 06:41:09;;;;;;;32.97;9.50;;;5.50;99.90;;;;;;5056082;28;20144;-73
2023/04/14 06:43:35;;;;;;;39.58;10.25;;;5.70;99.90;;;;;;5056046;28;20457;-76
2023/04/14 06:46:01;;;;;;;32.50;10.15;;;5.70;99.90;;;;;;5056699;28;20501;-71
2023/04/14 06:48:27;;;;;;;29.95;10.40;;;5.90;99.90;;;;;;5039755;28;20044;-75
2023/04/14 06:50:54;;;;;;;28.00;9.55;;;6.00;99.90;;;;;;5056460;28;20040;-77
2023/04/14 06:53:20;;;;;;;23.20;7.70;;;6.10;99.90;;;;;;5055747;28;20060;-77
2023/04/14 06:55:50;;;;;;;28.40;8.80;;;6.20;99.90;;;;;;5055476;28;20036;-75
2023/04/14 06:58:15;;;;;;;33.40;9.70;;;6.30;99.90;;;;;;5055392;28;20139;-74
2023/04/14 07:00:41;;;;;;;22.08;8.15;;;6.40;99.90;;;;;;5039252;28;20072;-77
2023/04/14 07:03:07;;;;;;;28.23;8.15;;;6.50;99.90;;;;;;5055706;28;20048;-75
2023/04/14 07:05:32;;;;;;;26.67;7.28;;;6.60;99.90;;;;;;5024321;28;20080;-73
2023/04/14 07:07:58;;;;;;;26.00;7.90;;;6.70;99.90;;;;;;5044789;28;20495;-76
2023/04/14 07:10:24;;;;;;;20.98;7.60;;;6.80;99.90;;;;;;5040775;28;20405;-76
2023/04/14 07:12:50;;;;;;;21.08;8.13;;;6.90;99.90;;;;;;5057353;28;20079;-75
2023/04/14 07:15:15;;;;;;;24.58;7.47;;;7.00;99.90;;;;;;5054867;28;20094;-74
2023/04/14 07:17:41;;;;;;;18.92;6.75;;;7.00;99.90;;;;;;5056480;28;20048;-75
2023/04/14 07:20:07;;;;;;;19.17;6.35;;;7.10;99.90;;;;;;5056692;28;20110;-75
2023/04/14 07:22:33;;;;;;;19.30;7.75;;;7.30;99.90;;;;;;5038709;28;20091;-74
2023/04/14 07:24:59;;;;;;;20.92;7.65;;;7.30;99.90;;;;;;5054918;28;20462;-75
2023/04/14 07:27:27;;;;;;;22.38;8.63;;;7.40;99.90;;;;;;5054282;28;20049;-76
2023/04/14 07:29:53;;;;;;;29.27;7.57;;;7.50;99.90;;;;;;5056083;28;20397;-75
2023/04/14 07:32:18;;;;;;;21.17;7.28;;;7.60;99.90;;;;;;5038186;28;20044;-75
2023/04/14 07:34:44;;;;;;;23.05;6.70;;;7.60;99.90;;;;;;5039392;28;20056;-75
2023/04/14 07:37:10;;;;;;;24.58;7.90;;;7.70;99.90;;;;;;5054605;28;20041;-73
2023/04/14 07:39:36;;;;;;;25.15;7.30;;;7.80;99.90;;;;;;5056003;28;20040;-76
2023/04/14 07:42:01;;;;;;;20.55;7.00;;;7.90;99.90;;;;;;5055646;28;20052;-75
2023/04/14 07:44:27;;;;;;;24.13;6.97;;;8.00;99.90;;;;;;5055836;28;20049;-75
2023/04/14 07:46:53;;;;;;;20.15;7.82;;;8.10;99.90;;;;;;5055281;28;20060;-75
2023/04/14 07:49:18;;;;;;;21.15;6.90;;;8.20;99.90;;;;;;5054410;28;20080;-75
2023/04/14 07:51:44;;;;;;;24.45;5.97;;;8.30;99.90;;;;;;5038123;28;20071;-75
2023/04/14 07:54:10;;;;;;;24.55;6.85;;;8.40;99.90;;;;;;5054866;28;20116;-71
2023/04/14 07:56:36;;;;;;;19.50;6.70;;;8.60;99.90;;;;;;5054243;28;20051;-74
2023/04/14 07:59:02;;;;;;;20.83;6.30;;;8.70;99.90;;;;;;5055130;28;20123;-74
2023/04/14 08:01:28;;;;;;;21.52;6.28;;;8.80;99.90;;;;;;5056152;28;20095;-75
2023/04/14 08:03:53;;;;;;;20.83;6.80;;;8.80;99.90;;;;;;5055943;28;20464;-74
2023/04/14 08:06:19;;;;;;;24.27;6.45;;;8.90;99.90;;;;;;5053808;28;20056;-73
2023/04/14 08:08:45;;;;;;;22.45;5.15;;;9.00;99.90;;;;;;5054307;28;20132;-73
2023/04/14 08:11:11;;;;;;;18.85;5.05;;;9.20;99.90;;;;;;5054033;28;20091;-73
2023/04/14 08:13:37;;;;;;;21.88;5.15;;;9.20;99.90;;;;;;5055351;28;20438;-73
2023/04/14 08:16:03;;;;;;;18.40;4.53;;;9.30;99.90;;;;;;5054676;28;20084;-74
2023/04/14 08:18:29;;;;;;;20.15;4.60;;;9.40;99.90;;;;;;5054883;28;20080;-74
2023/04/14 08:20:55;;;;;;;20.13;5.00;;;9.50;99.90;;;;;;5058417;28;20131;-74
2023/04/14 08:23:21;;;;;;;20.70;5.28;;;9.50;99.90;;;;;;5055150;28;20405;-75
2023/04/14 08:25:47;;;;;;;19.88;4.28;;;9.60;99.90;;;;;;5055256;28;20049;-74
2023/04/14 08:28:13;;;;;;;16.10;2.92;;;9.80;99.90;;;;;;5021073;28;20045;-74
2023/04/14 08:30:39;;;;;;;17.33;4.25;;;10.00;99.90;;;;;;5054028;28;20056;-73
2023/04/14 08:33:04;;;;;;;21.05;4.70;;;10.00;99.90;;;;;;5055760;28;20068;-73
2023/04/14 08:35:30;;;;;;;19.02;4.05;;;10.10;99.90;;;;;;5055899;28;20056;-74
2023/04/14 08:37:59;;;;;;;19.48;4.07;;;10.10;99.90;;;;;;5056262;28;20058;-74
2023/04/14 08:40:36;;;;;;;24.50;3.78;;;10.20;99.90;;;;;;5054074;28;20139;-75
2023/04/14 08:43:02;;;;;;;20.45;3.55;;;10.30;99.90;;;;;;5056400;28;20045;-75
2023/04/14 08:45:30;;;;;;;18.55;4.35;;;10.30;99.90;;;;;;5054115;28;20125;-75
2023/04/14 08:47:57;;;;;;;20.08;4.03;;;10.40;99.90;;;;;;5054327;28;20056;-73
2023/04/14 08:50:29;;;;;;;18.45;4.63;;;10.40;99.90;;;;;;5055198;28;20461;-74
2023/04/14 08:52:57;;;;;;;13.80;3.63;;;10.50;99.90;;;;;;5054205;28;20052;-74
2023/04/14 08:55:24;;;;;;;22.60;3.38;;;10.70;99.90;;;;;;5054633;28;20389;-74
2023/04/14 08:57:50;;;;;;;;;;;10.80;99.90;;;;;;5053852;28;20350;-73
2023/04/14 09:00:18;;;;;;;12.97;3.10;;;10.70;99.90;;;;;;5087256;28;20356;-74
2023/04/14 09:02:45;;;;;;;15.27;4.13;;;10.80;99.90;;;;;;5053984;28;20271;-76
2023/04/14 09:05:12;;;;;;;14.55;3.15;;;10.90;99.90;;;;;;5036745;28;20048;-75
2023/04/14 09:07:38;;;;;;;14.85;2.70;;;10.90;99.90;;;;;;5054186;28;20408;-75
2023/04/14 09:10:05;;;;;;;15.50;2.83;;;11.00;99.90;;;;;;5053278;28;20040;-75
2023/04/14 09:12:32;;;;;;;16.35;2.97;;;11.00;99.90;;;;;;5053154;28;20045;-72
2023/04/14 09:14:58;;;;;;;;;;;11.10;99.90;;;;;;5054116;28;20174;-74
2023/04/14 09:17:28;;;;;;;13.93;2.80;;;11.10;99.90;;;;;;5054776;28;20310;-73
2023/04/14 09:19:53;;;;;;;13.43;2.45;;;11.20;99.90;;;;;;5036573;28;20049;-75
2023/04/14 09:22:20;;;;;;;14.65;2.22;;;11.30;99.90;;;;;;5037954;28;20072;-75
2023/04/14 09:24:47;;;;;;;16.10;1.90;;;11.50;99.90;;;;;;5037822;28;20393;-74
2023/04/14 09:27:13;;;;;;;13.02;2.85;;;11.40;99.90;;;;;;5056130;28;20128;-72
2023/04/14 09:29:40;;;;;;;14.95;2.97;;;11.50;99.90;;;;;;5054233;28;20413;-73
2023/04/14 09:32:06;;;;;;;;;;;11.40;99.90;;;;;;5053289;28;20052;-75
2023/04/14 09:34:32;;;;;;;19.97;2.10;;;11.50;99.90;;;;;;5086728;28;20269;-76
2023/04/14 09:37:09;;;;;;;14.13;1.90;;;11.50;99.90;;;;;;5036639;28;20088;-73
2023/04/14 09:39:35;;;;;;;17.38;2.55;;;11.50;99.90;;;;;;5052588;28;20056;-74
2023/04/14 09:42:02;;;;;;;15.15;2.35;;;11.60;99.90;;;;;;5052246;28;20080;-76
2023/04/14 09:44:29;;;;;;;;;;;11.70;99.90;;;;;;5054024;28;20052;-73
2023/04/14 09:46:55;;;;;;;13.15;2.33;;;11.80;99.90;;;;;;5052438;28;19927;-75
2023/04/14 09:49:22;;;;;;;16.75;2.20;;;11.90;99.90;;;;;;5053542;28;20041;-73
2023/04/14 09:51:48;;;;;;;17.80;2.40;;;12.00;99.90;;;;;;5035645;28;20049;-76
2023/04/14 09:54:26;;;;;;;17.00;2.08;;;12.10;99.90;;;;;;5052443;28;20094;-77
2023/04/14 09:56:55;;;;;;;14.32;2.38;;;12.10;99.90;;;;;;5052182;28;20512;-75
2023/04/14 09:59:37;;;;;;;10.30;2.28;;;12.00;99.20;;;;;;5053455;28;20393;-76
2023/04/14 10:02:06;;;;;;;12.45;1.73;;;12.10;99.90;;;;;;5036107;28;20408;-76
2023/04/14 10:04:33;;;;;;;16.50;2.85;;;12.10;99.90;;;;;;5053322;28;20052;-72
2023/04/14 10:06:59;;;;;;;15.00;2.55;;;12.20;99.90;;;;;;5052218;28;20116;-74
2023/04/14 10:09:28;;;;;;;10.50;1.70;;;12.30;99.90;;;;;;5052024;28;20052;-75
2023/04/14 10:12:12;;;;;;;11.48;1.90;;;12.40;99.90;;;;;;5052539;28;20075;-74
2023/04/14 10:14:42;;;;;;;13.80;1.85;;;12.50;99.90;;;;;;5052136;28;20045;-75
2023/04/14 10:17:09;;;;;;;13.57;1.85;;;12.50;99.90;;;;;;5036276;28;20506;-75
2023/04/14 10:19:36;;;;;;;10.77;2.00;;;12.60;99.90;;;;;;5051725;28;20041;-74
2023/04/14 10:22:03;;;;;;;15.75;1.95;;;12.70;99.90;;;;;;5053096;28;20279;-74
2023/04/14 10:24:29;;;;;;;;;;;12.80;98.20;;;;;;5052649;28;20048;-73
2023/04/14 10:26:57;;;;;;;11.15;1.80;;;12.80;97.40;;;;;;5052774;28;19995;-73
2023/04/14 10:29:23;;;;;;;16.75;2.20;;;12.70;97.10;;;;;;5054005;28;20037;-74
2023/04/14 10:32:02;;;;;;;12.02;2.05;;;12.50;97.20;;;;;;5052726;28;20574;-73
2023/04/14 10:34:31;;;;;;;12.02;2.10;;;12.20;97.10;;;;;;5055300;28;20365;-73
2023/04/14 10:37:12;;;;;;;11.63;2.22;;;12.20;97.00;;;;;;5054576;28;20051;-75
2023/04/14 10:39:39;;;;;;;13.52;1.90;;;12.50;97.10;;;;;;5053238;28;20060;-73
2023/04/14 10:42:05;;;;;;;9.90;1.70;;;12.70;97.20;;;;;;5052867;28;20045;-71
2023/04/14 10:44:32;;;;;;;9.52;1.90;;;13.10;97.30;;;;;;5035566;28;20059;-74
2023/04/14 10:47:03;;;;;;;13.88;2.22;;;13.10;96.60;;;;;;5051864;28;20120;-74
2023/04/14 10:49:40;;;;;;;9.77;2.08;;;13.20;96.00;;;;;;5052179;28;20056;-75
2023/04/14 10:52:15;;;;;;;10.15;2.13;;;13.10;96.30;;;;;;5035576;28;20049;-73
2023/04/14 10:55:01;;;;;;;13.80;2.97;;;13.20;97.00;;;;;;5052982;28;20056;-74
2023/04/14 10:57:28;;;;;;;14.30;2.90;;;13.30;97.60;;;;;;5051685;28;20045;-74
2023/04/14 10:59:58;;;;;;;8.52;1.75;;;13.40;97.50;;;;;;5052982;28;20053;-72
2023/04/14 11:02:29;;;;;;;10.60;1.40;;;13.60;97.60;;;;;;5035441;28;20148;-73
2023/04/14 11:05:07;;;;;;;15.25;2.20;;;13.80;95.60;;;;;;5055366;28;20045;-74
2023/04/14 11:07:48;;;;;;;9.57;1.83;;;13.90;94.40;;;;;;5057176;28;20064;-75
2023/04/14 11:10:16;;;;;;;11.57;2.28;;;13.90;94.70;;;;;;5055766;28;20428;-73
2023/04/14 11:12:43;;;;;;;13.27;1.52;;;13.90;94.80;;;;;;5056897;28;20045;-73
2023/04/14 11:15:09;;;;;;;15.80;1.77;;;13.90;95.40;;;;;;5056819;28;20390;-75
2023/04/14 11:17:39;;;;;;;13.80;1.67;;;14.00;93.90;;;;;;5057229;28;20045;-72
2023/04/14 11:20:19;;;;;;;7.50;1.73;;;13.90;94.10;;;;;;5057186;28;20279;-74
2023/04/14 11:22:51;;;;;;;28.40;6.70;;;13.90;94.40;;;;;;5040288;28;20108;-75
2023/04/14 11:25:19;;;;;;;10.95;2.30;;;14.00;94.70;;;;;;5056511;28;20354;-74
2023/04/14 11:27:47;;;;;;;9.35;2.00;;;14.00;94.90;;;;;;5055609;28;20048;-77
2023/04/14 11:30:20;;;;;;;16.42;2.60;;;13.60;93.80;;;;;;5022584;28;20139;-74
2023/04/14 11:32:49;;;;;;;13.85;2.55;;;13.70;94.70;;;;;;5056523;28;20106;-74
2023/04/14 11:35:17;;;;;;;13.02;2.60;;;13.40;93.80;;;;;;5055932;28;20049;-74
2023/04/14 11:37:43;;;;;;;13.82;4.10;;;13.60;95.40;;;;;;5055638;28;20049;-75
2023/04/14 11:40:11;;;;;;;16.30;2.58;;;13.90;96.00;;;;;;5056936;28;20048;-73
2023/04/14 11:42:37;;;;;;;9.02;1.80;;;14.20;95.90;;;;;;5059314;28;20049;-73
2023/04/14 11:45:04;;;;;;;10.70;1.30;;;14.40;95.40;;;;;;5058244;28;20059;-73
2023/04/14 11:47:30;;;;;;;4.85;0.85;;;14.50;93.10;;;;;;5040042;28;20558;-73
2023/04/14 11:49:59;;;;;;;10.25;1.30;;;14.70;90.40;;;;;;5055152;28;20037;-74
2023/04/14 11:52:25;;;;;;;8.88;1.48;;;14.50;90.40;;;;;;5039418;28;20045;-73
2023/04/14 11:54:51;;;;;;;7.70;1.63;;;14.50;89.20;;;;;;5054887;28;20102;-74
2023/04/14 11:57:17;;;;;;;9.63;1.60;;;14.40;89.50;;;;;;5055263;28;20416;-72
2023/04/14 11:59:44;;;;;;;13.00;3.60;;;14.40;91.20;;;;;;5056023;28;20044;-74
2023/04/14 12:02:20;;;;;;;;;;;14.50;89.50;;;;;;5056265;28;20044;-71
2023/04/14 12:04:48;;;;;;;9.07;1.45;;;14.40;88.70;;;;;;5055456;28;20138;-72
2023/04/14 12:07:16;;;;;;;14.27;2.15;;;14.30;89.00;;;;;;5054708;28;20068;-75
2023/04/14 12:09:47;;;;;;;27.75;14.40;;;14.30;90.20;;;;;;5054847;28;20060;-74
2023/04/14 12:12:17;;;;;;;10.43;1.30;;;14.30;90.40;;;;;;5039080;28;20048;-73
2023/04/14 12:14:45;;;;;;;9.57;1.40;;;;;;;;;;5054171;28;20049;-73
2023/04/14 12:17:11;;;;;;;10.43;1.92;;;14.50;90.90;;;;;;5055356;28;20049;-75
2023/04/14 12:19:37;;;;;;;6.53;1.63;;;14.60;90.70;;;;;;5054063;28;20055;-76
2023/04/14 12:22:08;;;;;;;7.97;1.90;;;14.70;90.80;;;;;;5055215;28;20088;-76
2023/04/14 12:24:38;;;;;;;12.35;2.72;;;14.80;90.20;;;;;;5055194;28;20122;-75
2023/04/14 12:27:05;;;;;;;8.20;2.13;;;14.80;90.40;;;;;;5037498;28;20589;-74
2023/04/14 12:29:32;;;;;;;;;;;14.60;90.20;;;;;;5038204;28;20053;-75
2023/04/14 12:31:58;;;;;;;;;;;14.40;90.60;;;;;;5088060;28;20361;-74
2023/04/14 12:34:28;;;;;;;8.13;1.40;;;14.40;90.90;;;;;;5088309;28;19928;-75
2023/04/14 12:36:55;;;;;;;10.27;2.08;;;14.50;91.50;;;;;;5055517;28;20041;-75
2023/04/14 12:39:24;;;;;;;10.50;1.70;;;14.50;91.00;;;;;;5054968;28;20041;-75
2023/04/14 12:41:50;;;;;;;9.15;1.70;;;14.60;91.50;;;;;;5054187;28;20036;-75
2023/04/14 12:44:20;;;;;;;7.97;1.95;;;14.70;90.70;;;;;;5038371;28;20099;-72
2023/04/14 12:46:49;;;;;;;7.97;1.80;;;14.90;90.60;;;;;;5055591;28;20044;-73
2023/04/14 12:49:32;;;;;;;6.15;1.77;;;15.10;90.60;;;;;;5054380;28;20051;-71
2023/04/14 12:51:59;;;;;;;7.28;1.58;;;15.20;90.30;;;;;;5054125;28;20045;-73
2023/04/14 12:54:25;;;;;;;11.75;1.60;;;15.30;89.80;;;;;;5055181;28;20044;-72